sensor_id;sensor_type;location;lat;lon;timestamp;pressure;altitude;pressure_sealevel;temperature;humidity
68141;BME280;54941;52.220;104.306;2023-03-13T00:01:18;95814.72;;;-6.79;89.94
68141;BME280;54941;52.220;104.306;2023-03-13T00:03:45;95830.13;;;-6.62;89.88
68141;BME280;54941;52.220;104.306;2023-03-13T00:06:12;95837.41;;;-6.48;89.59
68141;BME280;54941;52.220;104.306;2023-03-13T00:08:39;95846.84;;;-6.29;88.42
68141;BME280;54941;52.220;104.306;2023-03-13T00:11:10;95849.34;;;-6.29;87.98
68141;BME280;54941;52.220;104.306;2023-03-13T00:13:37;95862.31;;;-6.13;87.92
68141;BME280;54941;52.220;104.306;2023-03-13T00:16:04;95863.34;;;-6.26;87.95
68141;BME280;54941;52.220;104.306;2023-03-13T00:18:31;95868.59;;;-6.29;88.26
68141;BME280;54941;52.220;104.306;2023-03-13T00:20:58;95881.00;;;-6.28;88.54
68141;BME280;54941;52.220;104.306;2023-03-13T00:23:25;95900.50;;;-6.20;88.69
68141;BME280;54941;52.220;104.306;2023-03-13T00:25:55;95904.81;;;-5.89;88.65
68141;BME280;54941;52.220;104.306;2023-03-13T00:28:23;95906.97;;;-5.84;87.95
68141;BME280;54941;52.220;104.306;2023-03-13T00:30:50;95909.88;;;-5.68;88.24
68141;BME280;54941;52.220;104.306;2023-03-13T00:33:16;95921.13;;;-5.41;88.00
68141;BME280;54941;52.220;104.306;2023-03-13T00:35:44;95924.13;;;-5.15;87.28
68141;BME280;54941;52.220;104.306;2023-03-13T00:38:10;95939.56;;;-4.99;86.58
68141;BME280;54941;52.220;104.306;2023-03-13T00:40:36;95934.72;;;-4.59;85.87
68141;BME280;54941;52.220;104.306;2023-03-13T00:43:03;95940.22;;;-4.65;85.29
68141;BME280;54941;52.220;104.306;2023-03-13T00:45:31;95939.13;;;-4.72;84.98
68141;BME280;54941;52.220;104.306;2023-03-13T00:47:57;95952.03;;;-4.35;85.05
68141;BME280;54941;52.220;104.306;2023-03-13T00:50:26;95969.09;;;-4.59;85.10
68141;BME280;54941;52.220;104.306;2023-03-13T00:52:52;95981.19;;;-4.53;85.25
68141;BME280;54941;52.220;104.306;2023-03-13T00:55:19;95985.78;;;-4.37;86.00
68141;BME280;54941;52.220;104.306;2023-03-13T00:57:45;95995.06;;;-4.59;86.31
68141;BME280;54941;52.220;104.306;2023-03-13T01:00:15;95990.75;;;-4.47;87.71
68141;BME280;54941;52.220;104.306;2023-03-13T01:02:43;96011.09;;;-4.09;87.19
68141;BME280;54941;52.220;104.306;2023-03-13T01:05:10;96022.97;;;-4.00;87.21
68141;BME280;54941;52.220;104.306;2023-03-13T01:07:36;96027.13;;;-4.10;87.28
68141;BME280;54941;52.220;104.306;2023-03-13T01:10:03;96035.53;;;-4.00;87.91
68141;BME280;54941;52.220;104.306;2023-03-13T01:12:29;96030.03;;;-3.63;86.34
68141;BME280;54941;52.220;104.306;2023-03-13T01:14:56;96046.47;;;-3.59;85.71
68141;BME280;54941;52.220;104.306;2023-03-13T01:17:22;96046.88;;;-3.54;86.07
68141;BME280;54941;52.220;104.306;2023-03-13T01:19:50;96046.06;;;-3.24;85.49
68141;BME280;54941;52.220;104.306;2023-03-13T01:22:19;96053.84;;;-3.67;85.38
68141;BME280;54941;52.220;104.306;2023-03-13T01:24:45;96051.56;;;-2.90;84.84
68141;BME280;54941;52.220;104.306;2023-03-13T01:27:12;96054.94;;;-2.61;83.00
68141;BME280;54941;52.220;104.306;2023-03-13T01:29:40;96046.03;;;-2.17;82.08
68141;BME280;54941;52.220;104.306;2023-03-13T01:32:06;96051.81;;;-1.78;80.31
68141;BME280;54941;52.220;104.306;2023-03-13T01:34:33;96055.13;;;-1.04;77.19
68141;BME280;54941;52.220;104.306;2023-03-13T01:37:01;96060.28;;;-1.70;78.19
68141;BME280;54941;52.220;104.306;2023-03-13T01:39:27;96063.56;;;-0.51;76.36
68141;BME280;54941;52.220;104.306;2023-03-13T01:41:53;96069.88;;;-0.37;74.66
68141;BME280;54941;52.220;104.306;2023-03-13T01:44:23;96072.47;;;1.00;71.67
68141;BME280;54941;52.220;104.306;2023-03-13T01:46:50;96084.09;;;1.61;66.44
68141;BME280;54941;52.220;104.306;2023-03-13T01:49:18;96095.81;;;2.67;63.32
68141;BME280;54941;52.220;104.306;2023-03-13T01:51:47;96089.34;;;2.32;62.73
68141;BME280;54941;52.220;104.306;2023-03-13T01:54:20;96093.28;;;3.14;60.42
68141;BME280;54941;52.220;104.306;2023-03-13T01:56:52;96107.44;;;4.75;57.74
68141;BME280;54941;52.220;104.306;2023-03-13T01:59:22;96112.72;;;2.19;60.82
68141;BME280;54941;52.220;104.306;2023-03-13T02:01:52;96130.16;;;4.33;57.10
68141;BME280;54941;52.220;104.306;2023-03-13T02:04:22;96143.72;;;4.85;55.19
68141;BME280;54941;52.220;104.306;2023-03-13T02:06:54;96146.56;;;2.20;60.12
68141;BME280;54941;52.220;104.306;2023-03-13T02:09:26;96153.38;;;2.11;63.86
68141;BME280;54941;52.220;104.306;2023-03-13T02:12:00;96141.31;;;2.54;63.54
68141;BME280;54941;52.220;104.306;2023-03-13T02:14:30;96162.31;;;2.48;63.68
68141;BME280;54941;52.220;104.306;2023-03-13T02:16:59;96162.44;;;2.14;62.70
68141;BME280;54941;52.220;104.306;2023-03-13T02:19:29;96163.16;;;1.24;63.39
68141;BME280;54941;52.220;104.306;2023-03-13T02:22:05;96160.97;;;1.29;65.45
68141;BME280;54941;52.220;104.306;2023-03-13T02:24:40;96165.38;;;1.27;66.48
68141;BME280;54941;52.220;104.306;2023-03-13T02:27:13;96170.34;;;0.51;67.49
68141;BME280;54941;52.220;104.306;2023-03-13T02:29:40;96174.09;;;0.65;66.42
68141;BME280;54941;52.220;104.306;2023-03-13T02:32:10;96182.97;;;0.43;68.23
68141;BME280;54941;52.220;104.306;2023-03-13T02:34:38;96184.44;;;-0.08;69.21
68141;BME280;54941;52.220;104.306;2023-03-13T02:37:07;96196.13;;;-0.24;71.22
68141;BME280;54941;52.220;104.306;2023-03-13T02:39:36;96193.97;;;-0.19;70.25
68141;BME280;54941;52.220;104.306;2023-03-13T02:42:04;96203.16;;;-0.01;69.18
68141;BME280;54941;52.220;104.306;2023-03-13T02:44:37;96209.13;;;0.26;70.34
68141;BME280;54941;52.220;104.306;2023-03-13T02:47:04;96210.69;;;0.27;68.05
68141;BME280;54941;52.220;104.306;2023-03-13T02:49:30;96223.53;;;0.25;67.84
68141;BME280;54941;52.220;104.306;2023-03-13T02:52:01;96221.75;;;0.08;63.25
68141;BME280;54941;52.220;104.306;2023-03-13T02:54:33;96223.75;;;0.32;59.79
68141;BME280;54941;52.220;104.306;2023-03-13T02:57:01;96243.78;;;0.25;57.41
68141;BME280;54941;52.220;104.306;2023-03-13T02:59:28;96243.50;;;0.28;56.64
68141;BME280;54941;52.220;104.306;2023-03-13T03:01:58;96255.94;;;0.75;55.38
68141;BME280;54941;52.220;104.306;2023-03-13T03:04:25;96253.97;;;0.33;55.64
68141;BME280;54941;52.220;104.306;2023-03-13T03:06:52;96267.34;;;1.14;54.45
68141;BME280;54941;52.220;104.306;2023-03-13T03:09:19;96278.69;;;0.67;53.35
68141;BME280;54941;52.220;104.306;2023-03-13T03:11:46;96282.25;;;1.17;53.07
68141;BME280;54941;52.220;104.306;2023-03-13T03:14:13;96284.59;;;0.93;52.57
68141;BME280;54941;52.220;104.306;2023-03-13T03:16:39;96292.75;;;1.22;52.83
68141;BME280;54941;52.220;104.306;2023-03-13T03:19:07;96298.59;;;2.16;51.59
68141;BME280;54941;52.220;104.306;2023-03-13T03:21:34;96296.59;;;2.44;49.59
68141;BME280;54941;52.220;104.306;2023-03-13T03:24:00;96328.13;;;2.09;49.01
68141;BME280;54941;52.220;104.306;2023-03-13T03:26:27;96342.03;;;1.63;49.90
68141;BME280;54941;52.220;104.306;2023-03-13T03:28:53;96333.84;;;1.52;49.73
68141;BME280;54941;52.220;104.306;2023-03-13T03:31:20;96328.59;;;1.45;49.12
68141;BME280;54941;52.220;104.306;2023-03-13T03:33:46;96322.75;;;1.53;49.93
68141;BME280;54941;52.220;104.306;2023-03-13T03:36:15;96341.81;;;2.74;46.89
68141;BME280;54941;52.220;104.306;2023-03-13T03:38:43;96346.81;;;2.00;47.75
68141;BME280;54941;52.220;104.306;2023-03-13T03:41:11;96336.81;;;1.65;48.58
68141;BME280;54941;52.220;104.306;2023-03-13T03:43:38;96313.66;;;1.16;50.74
68141;BME280;54941;52.220;104.306;2023-03-13T03:46:04;96334.28;;;0.95;52.05
68141;BME280;54941;52.220;104.306;2023-03-13T03:48:31;96343.25;;;0.90;52.57
68141;BME280;54941;52.220;104.306;2023-03-13T03:50:59;96342.69;;;0.96;51.55
68141;BME280;54941;52.220;104.306;2023-03-13T03:53:27;96358.22;;;1.36;50.18
68141;BME280;54941;52.220;104.306;2023-03-13T03:55:53;96352.56;;;2.02;48.18
68141;BME280;54941;52.220;104.306;2023-03-13T03:58:20;96364.13;;;1.96;48.82
68141;BME280;54941;52.220;104.306;2023-03-13T04:00:46;96370.25;;;1.86;47.64
68141;BME280;54941;52.220;104.306;2023-03-13T04:03:14;96385.81;;;1.57;47.85
68141;BME280;54941;52.220;104.306;2023-03-13T04:05:40;96395.28;;;1.12;49.99
68141;BME280;54941;52.220;104.306;2023-03-13T04:08:07;96399.13;;;1.16;48.53
68141;BME280;54941;52.220;104.306;2023-03-13T04:10:35;96406.75;;;2.11;48.30
68141;BME280;54941;52.220;104.306;2023-03-13T04:13:02;96395.16;;;2.42;46.31
68141;BME280;54941;52.220;104.306;2023-03-13T04:15:28;96398.41;;;2.26;46.06
68141;BME280;54941;52.220;104.306;2023-03-13T04:17:54;96385.00;;;1.57;46.74
68141;BME280;54941;52.220;104.306;2023-03-13T04:20:21;96403.34;;;1.94;45.52
68141;BME280;54941;52.220;104.306;2023-03-13T04:22:47;96403.81;;;2.65;45.99
68141;BME280;54941;52.220;104.306;2023-03-13T04:25:13;96413.34;;;2.21;45.21
68141;BME280;54941;52.220;104.306;2023-03-13T04:27:41;96434.16;;;1.91;47.38
68141;BME280;54941;52.220;104.306;2023-03-13T04:30:09;96444.91;;;1.06;47.45
68141;BME280;54941;52.220;104.306;2023-03-13T04:32:35;96442.84;;;1.45;46.53
68141;BME280;54941;52.220;104.306;2023-03-13T04:35:02;96453.19;;;0.54;46.90
68141;BME280;54941;52.220;104.306;2023-03-13T04:37:29;96447.44;;;1.06;45.46
68141;BME280;54941;52.220;104.306;2023-03-13T04:39:56;96455.81;;;0.34;47.17
68141;BME280;54941;52.220;104.306;2023-03-13T04:42:22;96459.44;;;1.04;45.02
68141;BME280;54941;52.220;104.306;2023-03-13T04:44:50;96468.25;;;1.27;44.38
68141;BME280;54941;52.220;104.306;2023-03-13T04:47:16;96458.09;;;0.65;45.39
68141;BME280;54941;52.220;104.306;2023-03-13T04:49:43;96445.53;;;1.26;43.49
68141;BME280;54941;52.220;104.306;2023-03-13T04:52:09;96466.44;;;1.20;43.38
68141;BME280;54941;52.220;104.306;2023-03-13T04:54:36;96455.09;;;1.67;43.40
68141;BME280;54941;52.220;104.306;2023-03-13T04:57:02;96456.28;;;0.75;42.59
68141;BME280;54941;52.220;104.306;2023-03-13T04:59:29;96456.34;;;0.65;42.55
68141;BME280;54941;52.220;104.306;2023-03-13T05:01:57;96460.28;;;0.50;43.13
68141;BME280;54941;52.220;104.306;2023-03-13T05:04:23;96456.91;;;1.04;42.49
68141;BME280;54941;52.220;104.306;2023-03-13T05:06:50;96456.47;;;2.05;40.19
68141;BME280;54941;52.220;104.306;2023-03-13T05:09:16;96462.94;;;1.56;40.63
68141;BME280;54941;52.220;104.306;2023-03-13T05:11:45;96450.03;;;2.19;39.89
68141;BME280;54941;52.220;104.306;2023-03-13T05:14:11;96452.69;;;1.83;40.72
68141;BME280;54941;52.220;104.306;2023-03-13T05:16:37;96472.41;;;1.89;40.80
68141;BME280;54941;52.220;104.306;2023-03-13T05:19:05;96475.78;;;1.72;41.29
68141;BME280;54941;52.220;104.306;2023-03-13T05:21:32;96462.97;;;1.82;40.55
68141;BME280;54941;52.220;104.306;2023-03-13T05:23:58;96453.06;;;1.71;39.86
68141;BME280;54941;52.220;104.306;2023-03-13T05:26:24;96460.09;;;2.28;39.39
68141;BME280;54941;52.220;104.306;2023-03-13T05:28:51;96478.19;;;2.51;39.46
68141;BME280;54941;52.220;104.306;2023-03-13T05:31:17;96458.28;;;1.69;40.61
68141;BME280;54941;52.220;104.306;2023-03-13T05:33:43;96474.22;;;1.18;41.36
68141;BME280;54941;52.220;104.306;2023-03-13T05:36:11;96468.38;;;1.08;42.14
68141;BME280;54941;52.220;104.306;2023-03-13T05:38:38;96465.13;;;0.71;41.74
68141;BME280;54941;52.220;104.306;2023-03-13T05:41:04;96483.16;;;0.68;41.63
68141;BME280;54941;52.220;104.306;2023-03-13T05:43:30;96468.25;;;1.45;40.30
68141;BME280;54941;52.220;104.306;2023-03-13T05:45:57;96460.19;;;1.50;39.67
68141;BME280;54941;52.220;104.306;2023-03-13T05:48:23;96471.59;;;1.89;39.44
68141;BME280;54941;52.220;104.306;2023-03-13T05:50:50;96472.34;;;1.81;38.85
68141;BME280;54941;52.220;104.306;2023-03-13T05:53:18;96471.50;;;1.73;40.34
68141;BME280;54941;52.220;104.306;2023-03-13T05:55:44;96470.06;;;1.17;40.00
68141;BME280;54941;52.220;104.306;2023-03-13T05:58:10;96448.94;;;1.52;39.96
68141;BME280;54941;52.220;104.306;2023-03-13T06:00:39;96469.47;;;1.06;40.31
68141;BME280;54941;52.220;104.306;2023-03-13T06:03:06;96462.41;;;1.88;40.05
68141;BME280;54941;52.220;104.306;2023-03-13T06:05:32;96465.72;;;1.45;39.33
68141;BME280;54941;52.220;104.306;2023-03-13T06:07:58;96470.59;;;0.93;40.74
68141;BME280;54941;52.220;104.306;2023-03-13T06:10:26;96472.84;;;0.96;40.54
68141;BME280;54941;52.220;104.306;2023-03-13T06:12:53;96467.69;;;2.20;40.01
68141;BME280;54941;52.220;104.306;2023-03-13T06:15:20;96470.53;;;2.17;39.13
68141;BME280;54941;52.220;104.306;2023-03-13T06:17:46;96465.69;;;2.06;39.65
68141;BME280;54941;52.220;104.306;2023-03-13T06:20:13;96459.47;;;1.39;39.72
68141;BME280;54941;52.220;104.306;2023-03-13T06:22:41;96456.44;;;0.46;42.86
68141;BME280;54941;52.220;104.306;2023-03-13T06:25:08;96451.13;;;1.12;42.65
68141;BME280;54941;52.220;104.306;2023-03-13T06:27:36;96464.09;;;0.36;43.71
68141;BME280;54941;52.220;104.306;2023-03-13T06:30:03;96470.03;;;0.18;41.94
68141;BME280;54941;52.220;104.306;2023-03-13T06:32:32;96451.59;;;0.53;42.39
68141;BME280;54941;52.220;104.306;2023-03-13T06:34:59;96454.25;;;0.24;42.54
68141;BME280;54941;52.220;104.306;2023-03-13T06:37:28;96462.03;;;0.77;41.82
68141;BME280;54941;52.220;104.306;2023-03-13T06:39:54;96475.41;;;0.42;42.00
68141;BME280;54941;52.220;104.306;2023-03-13T06:42:21;96468.16;;;0.74;43.58
68141;BME280;54941;52.220;104.306;2023-03-13T06:44:49;96477.41;;;0.93;43.88
68141;BME280;54941;52.220;104.306;2023-03-13T06:47:15;96469.94;;;0.74;42.73
68141;BME280;54941;52.220;104.306;2023-03-13T06:49:41;96460.72;;;1.18;42.31
68141;BME280;54941;52.220;104.306;2023-03-13T06:52:08;96470.09;;;-0.11;41.82
68141;BME280;54941;52.220;104.306;2023-03-13T06:54:36;96474.94;;;-0.46;44.35
68141;BME280;54941;52.220;104.306;2023-03-13T06:57:02;96461.72;;;-0.31;44.04
68141;BME280;54941;52.220;104.306;2023-03-13T06:59:29;96473.34;;;-0.38;43.82
68141;BME280;54941;52.220;104.306;2023-03-13T07:01:58;96477.16;;;-0.91;45.03
68141;BME280;54941;52.220;104.306;2023-03-13T07:04:24;96466.16;;;-0.52;43.51
68141;BME280;54941;52.220;104.306;2023-03-13T07:06:51;96489.31;;;-0.85;45.60
68141;BME280;54941;52.220;104.306;2023-03-13T07:09:17;96482.78;;;-0.78;44.42
68141;BME280;54941;52.220;104.306;2023-03-13T07:11:46;96489.84;;;-0.82;45.44
68141;BME280;54941;52.220;104.306;2023-03-13T07:14:13;96486.78;;;-0.57;43.85
68141;BME280;54941;52.220;104.306;2023-03-13T07:16:39;96481.91;;;0.08;44.18
68141;BME280;54941;52.220;104.306;2023-03-13T07:19:09;96488.13;;;0.23;44.14
68141;BME280;54941;52.220;104.306;2023-03-13T07:21:36;96478.41;;;-0.67;43.72
68141;BME280;54941;52.220;104.306;2023-03-13T07:24:03;96479.69;;;-0.05;44.10
68141;BME280;54941;52.220;104.306;2023-03-13T07:26:29;96490.38;;;-0.30;42.75
68141;BME280;54941;52.220;104.306;2023-03-13T07:28:56;96493.03;;;-0.51;41.54
68141;BME280;54941;52.220;104.306;2023-03-13T07:31:22;96509.00;;;-0.22;41.42
68141;BME280;54941;52.220;104.306;2023-03-13T07:33:49;96495.03;;;0.40;41.15
68141;BME280;54941;52.220;104.306;2023-03-13T07:36:17;96521.78;;;0.06;40.90
68141;BME280;54941;52.220;104.306;2023-03-13T07:38:46;96512.75;;;-0.26;41.94
68141;BME280;54941;52.220;104.306;2023-03-13T07:41:12;96522.75;;;-0.05;41.51
68141;BME280;54941;52.220;104.306;2023-03-13T07:43:39;96511.00;;;-0.25;41.43
68141;BME280;54941;52.220;104.306;2023-03-13T07:46:07;96510.91;;;-0.53;41.66
68141;BME280;54941;52.220;104.306;2023-03-13T07:48:35;96518.88;;;-0.28;42.10
68141;BME280;54941;52.220;104.306;2023-03-13T07:51:02;96520.47;;;-0.66;42.17
68141;BME280;54941;52.220;104.306;2023-03-13T07:53:30;96529.44;;;-0.23;41.76
68141;BME280;54941;52.220;104.306;2023-03-13T07:55:59;96535.81;;;-0.67;42.99
68141;BME280;54941;52.220;104.306;2023-03-13T07:58:27;96528.59;;;-0.14;42.18
68141;BME280;54941;52.220;104.306;2023-03-13T08:00:57;96535.94;;;-0.02;41.83
68141;BME280;54941;52.220;104.306;2023-03-13T08:03:24;96541.94;;;-0.31;41.74
68141;BME280;54941;52.220;104.306;2023-03-13T08:05:57;96553.25;;;-0.26;42.66
68141;BME280;54941;52.220;104.306;2023-03-13T08:08:23;96549.09;;;0.12;41.84
68141;BME280;54941;52.220;104.306;2023-03-13T08:10:59;96553.38;;;0.21;41.00
68141;BME280;54941;52.220;104.306;2023-03-13T08:13:25;96569.16;;;-0.33;41.66
68141;BME280;54941;52.220;104.306;2023-03-13T08:16:04;96558.72;;;-0.50;42.98
68141;BME280;54941;52.220;104.306;2023-03-13T08:18:31;96560.22;;;-0.28;42.13
68141;BME280;54941;52.220;104.306;2023-03-13T08:21:00;96561.38;;;-0.03;42.49
68141;BME280;54941;52.220;104.306;2023-03-13T08:23:27;96568.03;;;0.08;41.66
68141;BME280;54941;52.220;104.306;2023-03-13T08:25:55;96583.44;;;-0.82;42.95
68141;BME280;54941;52.220;104.306;2023-03-13T08:28:21;96578.94;;;-0.59;43.86
68141;BME280;54941;52.220;104.306;2023-03-13T08:30:48;96582.28;;;-0.59;43.56
68141;BME280;54941;52.220;104.306;2023-03-13T08:33:17;96571.66;;;-0.24;42.59
68141;BME280;54941;52.220;104.306;2023-03-13T08:35:43;96569.28;;;-0.16;41.52
68141;BME280;54941;52.220;104.306;2023-03-13T08:38:09;96586.19;;;-0.26;41.98
68141;BME280;54941;52.220;104.306;2023-03-13T08:40:36;96593.75;;;-0.55;40.76
68141;BME280;54941;52.220;104.306;2023-03-13T08:43:06;96599.09;;;-0.48;41.47
68141;BME280;54941;52.220;104.306;2023-03-13T08:45:32;96603.25;;;-0.09;40.46
68141;BME280;54941;52.220;104.306;2023-03-13T08:47:59;96595.66;;;-0.28;41.19
68141;BME280;54941;52.220;104.306;2023-03-13T08:50:25;96610.22;;;-0.70;41.59
68141;BME280;54941;52.220;104.306;2023-03-13T08:52:51;96607.69;;;-0.70;39.39
68141;BME280;54941;52.220;104.306;2023-03-13T08:55:18;96623.41;;;-0.76;37.44
68141;BME280;54941;52.220;104.306;2023-03-13T08:57:44;96634.38;;;-1.47;38.71
68141;BME280;54941;52.220;104.306;2023-03-13T09:00:21;96633.84;;;-1.30;38.43
68141;BME280;54941;52.220;104.306;2023-03-13T09:02:48;96652.69;;;-1.55;39.43
68141;BME280;54941;52.220;104.306;2023-03-13T09:05:16;96654.84;;;-1.09;38.72
68141;BME280;54941;52.220;104.306;2023-03-13T09:07:42;96643.41;;;-1.33;38.98
68141;BME280;54941;52.220;104.306;2023-03-13T09:10:11;96662.44;;;-1.29;38.85
68141;BME280;54941;52.220;104.306;2023-03-13T09:12:39;96661.94;;;-1.23;38.38
68141;BME280;54941;52.220;104.306;2023-03-13T09:15:07;96670.03;;;-1.50;38.75
68141;BME280;54941;52.220;104.306;2023-03-13T09:17:35;96676.63;;;-1.90;38.30
68141;BME280;54941;52.220;104.306;2023-03-13T09:20:01;96686.84;;;-1.92;39.99
68141;BME280;54941;52.220;104.306;2023-03-13T09:22:29;96689.00;;;-1.87;39.82
68141;BME280;54941;52.220;104.306;2023-03-13T09:24:55;96688.16;;;-2.09;39.34
68141;BME280;54941;52.220;104.306;2023-03-13T09:27:22;96690.84;;;-1.78;38.92
68141;BME280;54941;52.220;104.306;2023-03-13T09:29:48;96691.25;;;-2.05;40.06
68141;BME280;54941;52.220;104.306;2023-03-13T09:32:15;96697.19;;;-2.38;41.16
68141;BME280;54941;52.220;104.306;2023-03-13T09:34:43;96707.25;;;-2.27;40.02
68141;BME280;54941;52.220;104.306;2023-03-13T09:37:09;96707.81;;;-2.12;40.47
68141;BME280;54941;52.220;104.306;2023-03-13T09:39:38;96728.59;;;-2.31;40.73
68141;BME280;54941;52.220;104.306;2023-03-13T09:42:12;96724.03;;;-2.48;40.21
68141;BME280;54941;52.220;104.306;2023-03-13T09:44:43;96732.28;;;-2.68;40.40
68141;BME280;54941;52.220;104.306;2023-03-13T09:47:14;96720.00;;;-2.62;40.55
68141;BME280;54941;52.220;104.306;2023-03-13T09:49:47;96734.56;;;-2.65;39.72
68141;BME280;54941;52.220;104.306;2023-03-13T09:52:16;96752.13;;;-2.75;40.33
68141;BME280;54941;52.220;104.306;2023-03-13T09:54:48;96744.22;;;-2.81;39.83
68141;BME280;54941;52.220;104.306;2023-03-13T09:57:21;96758.19;;;-2.88;41.14
68141;BME280;54941;52.220;104.306;2023-03-13T09:59:53;96754.97;;;-2.90;40.60
68141;BME280;54941;52.220;104.306;2023-03-13T10:02:30;96770.97;;;-3.03;41.85
68141;BME280;54941;52.220;104.306;2023-03-13T10:05:12;96765.00;;;-3.13;41.09
68141;BME280;54941;52.220;104.306;2023-03-13T10:07:40;96774.84;;;-3.10;41.13
68141;BME280;54941;52.220;104.306;2023-03-13T10:10:12;96774.63;;;-3.07;40.76
68141;BME280;54941;52.220;104.306;2023-03-13T10:12:43;96783.78;;;-3.17;41.36
68141;BME280;54941;52.220;104.306;2023-03-13T10:15:27;96776.78;;;-3.24;42.10
68141;BME280;54941;52.220;104.306;2023-03-13T10:17:56;96793.72;;;-3.26;41.98
68141;BME280;54941;52.220;104.306;2023-03-13T10:20:26;96799.13;;;-3.20;42.45
68141;BME280;54941;52.220;104.306;2023-03-13T10:22:57;96802.19;;;-3.27;41.93
68141;BME280;54941;52.220;104.306;2023-03-13T10:25:28;96786.38;;;-3.29;42.84
68141;BME280;54941;52.220;104.306;2023-03-13T10:27:56;96807.50;;;-3.19;43.13
68141;BME280;54941;52.220;104.306;2023-03-13T10:30:24;96807.22;;;-3.27;43.11
68141;BME280;54941;52.220;104.306;2023-03-13T10:32:53;96806.69;;;-3.44;42.88
68141;BME280;54941;52.220;104.306;2023-03-13T10:35:21;96822.56;;;-3.54;43.14
68141;BME280;54941;52.220;104.306;2023-03-13T10:38:01;96825.09;;;-3.54;43.88
68141;BME280;54941;52.220;104.306;2023-03-13T10:40:28;96832.69;;;-3.67;44.20
68141;BME280;54941;52.220;104.306;2023-03-13T10:43:00;96835.25;;;-3.79;45.17
68141;BME280;54941;52.220;104.306;2023-03-13T10:45:31;96841.91;;;-3.78;46.06
68141;BME280;54941;52.220;104.306;2023-03-13T10:48:02;96846.56;;;-3.85;46.04
68141;BME280;54941;52.220;104.306;2023-03-13T10:50:32;96850.78;;;-3.85;45.45
68141;BME280;54941;52.220;104.306;2023-03-13T10:53:09;96862.66;;;-3.87;45.97
68141;BME280;54941;52.220;104.306;2023-03-13T10:55:44;96861.88;;;-4.01;45.93
68141;BME280;54941;52.220;104.306;2023-03-13T10:58:18;96867.50;;;-3.97;47.06
68141;BME280;54941;52.220;104.306;2023-03-13T11:00:45;96876.91;;;-3.99;45.18
68141;BME280;54941;52.220;104.306;2023-03-13T11:03:15;96878.91;;;-4.04;45.73
68141;BME280;54941;52.220;104.306;2023-03-13T11:05:42;96878.00;;;-4.03;44.83
68141;BME280;54941;52.220;104.306;2023-03-13T11:08:19;96883.72;;;-4.14;44.80
68141;BME280;54941;52.220;104.306;2023-03-13T11:10:55;96888.06;;;-4.16;45.53
68141;BME280;54941;52.220;104.306;2023-03-13T11:13:33;96896.63;;;-4.18;45.67
68141;BME280;54941;52.220;104.306;2023-03-13T11:16:05;96920.19;;;-4.19;45.72
68141;BME280;54941;52.220;104.306;2023-03-13T11:18:42;96918.47;;;-4.19;46.04
68141;BME280;54941;52.220;104.306;2023-03-13T11:21:21;96935.69;;;-4.25;46.34
68141;BME280;54941;52.220;104.306;2023-03-13T11:23:54;96951.97;;;-4.31;46.89
68141;BME280;54941;52.220;104.306;2023-03-13T11:26:28;96953.97;;;-4.36;47.00
68141;BME280;54941;52.220;104.306;2023-03-13T11:28:59;96962.53;;;-4.38;47.08
68141;BME280;54941;52.220;104.306;2023-03-13T11:31:31;96970.56;;;-4.46;47.07
68141;BME280;54941;52.220;104.306;2023-03-13T11:34:05;96974.16;;;-4.50;48.47
68141;BME280;54941;52.220;104.306;2023-03-13T11:36:39;96984.34;;;-4.52;47.72
68141;BME280;54941;52.220;104.306;2023-03-13T11:39:39;96991.56;;;-4.60;47.52
68141;BME280;54941;52.220;104.306;2023-03-13T11:42:16;96987.34;;;-4.59;47.56
68141;BME280;54941;52.220;104.306;2023-03-13T11:44:58;96997.28;;;-4.58;48.03
68141;BME280;54941;52.220;104.306;2023-03-13T11:47:33;97012.28;;;-4.56;48.03
68141;BME280;54941;52.220;104.306;2023-03-13T11:50:34;97004.34;;;-4.63;47.96
68141;BME280;54941;52.220;104.306;2023-03-13T11:53:22;97018.81;;;-4.66;48.90
68141;BME280;54941;52.220;104.306;2023-03-13T11:56:05;97023.22;;;-4.70;49.15
68141;BME280;54941;52.220;104.306;2023-03-13T11:58:55;97030.63;;;-4.81;49.54
68141;BME280;54941;52.220;104.306;2023-03-13T12:01:27;97031.50;;;-4.82;49.67
68141;BME280;54941;52.220;104.306;2023-03-13T12:03:55;97039.69;;;-4.93;49.84
68141;BME280;54941;52.220;104.306;2023-03-13T12:06:30;97047.44;;;-4.96;50.29
68141;BME280;54941;52.220;104.306;2023-03-13T12:09:02;97053.97;;;-4.93;50.10
68141;BME280;54941;52.220;104.306;2023-03-13T12:11:35;97060.88;;;-4.97;50.00
68141;BME280;54941;52.220;104.306;2023-03-13T12:14:08;97072.56;;;-4.96;50.15
68141;BME280;54941;52.220;104.306;2023-03-13T12:16:40;97071.66;;;-4.95;49.87
68141;BME280;54941;52.220;104.306;2023-03-13T12:19:10;97078.47;;;-4.97;49.98
68141;BME280;54941;52.220;104.306;2023-03-13T12:21:42;97082.16;;;-5.02;50.12
68141;BME280;54941;52.220;104.306;2023-03-13T12:24:20;97082.63;;;-4.96;50.36
68141;BME280;54941;52.220;104.306;2023-03-13T12:26:55;97082.06;;;-5.01;50.56
68141;BME280;54941;52.220;104.306;2023-03-13T12:29:31;97089.53;;;-4.99;51.13
68141;BME280;54941;52.220;104.306;2023-03-13T12:32:03;97090.16;;;-4.96;50.44
68141;BME280;54941;52.220;104.306;2023-03-13T12:34:38;97089.34;;;-4.96;50.38
68141;BME280;54941;52.220;104.306;2023-03-13T12:37:16;97102.88;;;-4.99;49.73
68141;BME280;54941;52.220;104.306;2023-03-13T12:39:48;97091.94;;;-4.98;49.78
68141;BME280;54941;52.220;104.306;2023-03-13T12:42:25;97107.75;;;-4.96;49.50
68141;BME280;54941;52.220;104.306;2023-03-13T12:44:57;97101.09;;;-4.97;49.12
68141;BME280;54941;52.220;104.306;2023-03-13T12:47:31;97113.31;;;-5.05;48.99
68141;BME280;54941;52.220;104.306;2023-03-13T12:50:15;97120.59;;;-5.14;49.67
68141;BME280;54941;52.220;104.306;2023-03-13T12:53:21;97128.75;;;-5.11;49.27